Terminal Aerodrome Forecast
Issued by NWS

Home | Current Version | Previous Version | Graphics & Text | Print | Product List | Glossary On
Versions: 1 2 3 4 5 6 7 8 9 10 11 12 13 14 15 16 17 18 19 20 21 22 23 24
000
FTUS43 KABR 071125
TAFATY
TAF
KATY 071125Z 0712/0812 29022G32KT P6SM SCT250
      TEMPO 0716/0717 1SM -SN BKN040
     FM071700 33035G47KT 1/4SM SN BLSN OVC010
     FM080200 34030G40KT 1SM -SN BLSN OVC015=

USA.gov is the U.S. government's official web portal to all federal, state and local government web resources and services.